sensor_id;sensor_type;location;lat;lon;timestamp;P1;durP1;ratioP1;P2;durP2;ratioP2
59189;SDS011;50749;51.636;4.948;2023-02-14T00:02:16;4.82;;;3.03;;
59189;SDS011;50749;51.636;4.948;2023-02-14T00:04:42;5.63;;;3.15;;
59189;SDS011;50749;51.636;4.948;2023-02-14T00:07:10;5.20;;;3.25;;
59189;SDS011;50749;51.636;4.948;2023-02-14T00:09:36;6.05;;;3.08;;
59189;SDS011;50749;51.636;4.948;2023-02-14T00:12:02;6.07;;;3.22;;
59189;SDS011;50749;51.636;4.948;2023-02-14T00:14:29;4.72;;;2.88;;
59189;SDS011;50749;51.636;4.948;2023-02-14T00:17:13;4.60;;;2.97;;
59189;SDS011;50749;51.636;4.948;2023-02-14T00:19:39;7.00;;;3.17;;
59189;SDS011;50749;51.636;4.948;2023-02-14T00:22:05;4.70;;;3.08;;
59189;SDS011;50749;51.636;4.948;2023-02-14T00:24:31;5.80;;;3.17;;
59189;SDS011;50749;51.636;4.948;2023-02-14T00:26:57;5.15;;;3.75;;
59189;SDS011;50749;51.636;4.948;2023-02-14T00:29:24;4.78;;;3.15;;
59189;SDS011;50749;51.636;4.948;2023-02-14T00:31:51;3.92;;;2.53;;
59189;SDS011;50749;51.636;4.948;2023-02-14T00:34:17;6.63;;;3.47;;
59189;SDS011;50749;51.636;4.948;2023-02-14T00:36:44;4.63;;;3.30;;
59189;SDS011;50749;51.636;4.948;2023-02-14T00:39:11;4.70;;;2.80;;
59189;SDS011;50749;51.636;4.948;2023-02-14T00:41:39;6.30;;;3.00;;
59189;SDS011;50749;51.636;4.948;2023-02-14T00:44:06;5.57;;;3.58;;
59189;SDS011;50749;51.636;4.948;2023-02-14T00:46:32;5.32;;;3.30;;
59189;SDS011;50749;51.636;4.948;2023-02-14T00:48:58;5.40;;;2.90;;
59189;SDS011;50749;51.636;4.948;2023-02-14T00:51:24;6.13;;;2.83;;
59189;SDS011;50749;51.636;4.948;2023-02-14T00:53:50;5.15;;;2.80;;
59189;SDS011;50749;51.636;4.948;2023-02-14T00:56:17;4.45;;;2.67;;
59189;SDS011;50749;51.636;4.948;2023-02-14T00:58:43;5.65;;;3.53;;
59189;SDS011;50749;51.636;4.948;2023-02-14T01:01:10;5.43;;;3.17;;
59189;SDS011;50749;51.636;4.948;2023-02-14T01:03:36;6.30;;;2.90;;
59189;SDS011;50749;51.636;4.948;2023-02-14T01:06:03;7.10;;;2.80;;
59189;SDS011;50749;51.636;4.948;2023-02-14T01:08:29;6.70;;;2.97;;
59189;SDS011;50749;51.636;4.948;2023-02-14T01:10:56;4.57;;;2.80;;
59189;SDS011;50749;51.636;4.948;2023-02-14T01:13:22;5.35;;;3.22;;
59189;SDS011;50749;51.636;4.948;2023-02-14T01:15:49;4.30;;;2.92;;
59189;SDS011;50749;51.636;4.948;2023-02-14T01:18:16;3.85;;;2.42;;
59189;SDS011;50749;51.636;4.948;2023-02-14T01:20:43;5.95;;;3.25;;
59189;SDS011;50749;51.636;4.948;2023-02-14T01:23:09;3.72;;;2.83;;
59189;SDS011;50749;51.636;4.948;2023-02-14T01:25:37;4.63;;;2.55;;
59189;SDS011;50749;51.636;4.948;2023-02-14T01:28:04;5.30;;;2.95;;
59189;SDS011;50749;51.636;4.948;2023-02-14T01:30:31;5.43;;;3.00;;
59189;SDS011;50749;51.636;4.948;2023-02-14T01:32:56;5.25;;;2.85;;
59189;SDS011;50749;51.636;4.948;2023-02-14T01:35:23;5.15;;;3.17;;
59189;SDS011;50749;51.636;4.948;2023-02-14T01:37:48;5.15;;;2.88;;
59189;SDS011;50749;51.636;4.948;2023-02-14T01:40:14;4.65;;;2.92;;
59189;SDS011;50749;51.636;4.948;2023-02-14T01:42:41;5.28;;;3.08;;
59189;SDS011;50749;51.636;4.948;2023-02-14T01:45:14;5.90;;;2.50;;
59189;SDS011;50749;51.636;4.948;2023-02-14T01:47:43;5.68;;;2.70;;
59189;SDS011;50749;51.636;4.948;2023-02-14T01:50:17;4.65;;;2.72;;
59189;SDS011;50749;51.636;4.948;2023-02-14T01:53:03;7.13;;;2.90;;
59189;SDS011;50749;51.636;4.948;2023-02-14T01:55:35;5.25;;;3.25;;
59189;SDS011;50749;51.636;4.948;2023-02-14T01:58:05;6.43;;;3.10;;
59189;SDS011;50749;51.636;4.948;2023-02-14T02:00:38;4.05;;;2.63;;
59189;SDS011;50749;51.636;4.948;2023-02-14T02:03:28;5.10;;;2.42;;
59189;SDS011;50749;51.636;4.948;2023-02-14T02:06:00;3.58;;;2.30;;
59189;SDS011;50749;51.636;4.948;2023-02-14T02:08:33;3.40;;;2.38;;
59189;SDS011;50749;51.636;4.948;2023-02-14T02:11:04;4.38;;;2.33;;
59189;SDS011;50749;51.636;4.948;2023-02-14T02:13:30;3.92;;;2.40;;
59189;SDS011;50749;51.636;4.948;2023-02-14T02:18:40;4.53;;;2.50;;
59189;SDS011;50749;51.636;4.948;2023-02-14T02:21:31;4.45;;;2.80;;
59189;SDS011;50749;51.636;4.948;2023-02-14T02:24:29;5.22;;;2.63;;
59189;SDS011;50749;51.636;4.948;2023-02-14T02:35:48;4.60;;;2.90;;
59189;SDS011;50749;51.636;4.948;2023-02-14T02:46:45;4.03;;;3.00;;
59189;SDS011;50749;51.636;4.948;2023-02-14T02:52:20;5.93;;;2.97;;
59189;SDS011;50749;51.636;4.948;2023-02-14T02:55:18;4.35;;;2.80;;
59189;SDS011;50749;51.636;4.948;2023-02-14T02:57:50;5.07;;;3.08;;
59189;SDS011;50749;51.636;4.948;2023-02-14T03:00:18;4.22;;;3.08;;
59189;SDS011;50749;51.636;4.948;2023-02-14T03:02:47;4.70;;;2.92;;
59189;SDS011;50749;51.636;4.948;2023-02-14T03:05:35;5.35;;;3.00;;
59189;SDS011;50749;51.636;4.948;2023-02-14T03:08:03;5.10;;;2.90;;
59189;SDS011;50749;51.636;4.948;2023-02-14T03:10:31;4.55;;;2.67;;
59189;SDS011;50749;51.636;4.948;2023-02-14T03:21:22;3.75;;;2.90;;
59189;SDS011;50749;51.636;4.948;2023-02-14T03:24:08;4.32;;;2.90;;
59189;SDS011;50749;51.636;4.948;2023-02-14T03:26:37;4.53;;;2.75;;
59189;SDS011;50749;51.636;4.948;2023-02-14T03:29:13;3.58;;;2.63;;
59189;SDS011;50749;51.636;4.948;2023-02-14T03:37:38;6.00;;;3.22;;
59189;SDS011;50749;51.636;4.948;2023-02-14T03:40:20;4.70;;;3.03;;
59189;SDS011;50749;51.636;4.948;2023-02-14T03:42:49;4.43;;;2.88;;
59189;SDS011;50749;51.636;4.948;2023-02-14T03:45:24;4.93;;;2.78;;
59189;SDS011;50749;51.636;4.948;2023-02-14T03:47:54;5.05;;;2.33;;
59189;SDS011;50749;51.636;4.948;2023-02-14T03:50:22;3.53;;;2.65;;
59189;SDS011;50749;51.636;4.948;2023-02-14T03:52:52;5.10;;;3.47;;
59189;SDS011;50749;51.636;4.948;2023-02-14T03:55:23;4.53;;;2.90;;
59189;SDS011;50749;51.636;4.948;2023-02-14T03:58:07;4.65;;;2.92;;
59189;SDS011;50749;51.636;4.948;2023-02-14T04:00:45;3.85;;;2.70;;
59189;SDS011;50749;51.636;4.948;2023-02-14T04:03:15;3.85;;;2.25;;
59189;SDS011;50749;51.636;4.948;2023-02-14T04:05:44;3.70;;;2.35;;
59189;SDS011;50749;51.636;4.948;2023-02-14T04:08:20;4.25;;;2.65;;
59189;SDS011;50749;51.636;4.948;2023-02-14T04:10:49;4.45;;;2.40;;
59189;SDS011;50749;51.636;4.948;2023-02-14T04:13:16;5.30;;;2.35;;
59189;SDS011;50749;51.636;4.948;2023-02-14T04:15:42;3.65;;;2.00;;
59189;SDS011;50749;51.636;4.948;2023-02-14T04:18:08;3.17;;;2.20;;
59189;SDS011;50749;51.636;4.948;2023-02-14T04:20:52;3.90;;;2.20;;
59189;SDS011;50749;51.636;4.948;2023-02-14T04:23:18;2.90;;;1.92;;
59189;SDS011;50749;51.636;4.948;2023-02-14T04:25:44;3.78;;;1.95;;
59189;SDS011;50749;51.636;4.948;2023-02-14T04:28:10;3.08;;;2.05;;
59189;SDS011;50749;51.636;4.948;2023-02-14T04:30:37;3.65;;;2.35;;
59189;SDS011;50749;51.636;4.948;2023-02-14T04:33:03;3.00;;;1.83;;
59189;SDS011;50749;51.636;4.948;2023-02-14T04:35:29;2.88;;;1.83;;
59189;SDS011;50749;51.636;4.948;2023-02-14T04:37:55;3.53;;;2.17;;
59189;SDS011;50749;51.636;4.948;2023-02-14T04:40:21;2.53;;;1.80;;
59189;SDS011;50749;51.636;4.948;2023-02-14T04:42:47;2.75;;;1.75;;
59189;SDS011;50749;51.636;4.948;2023-02-14T04:45:13;6.03;;;2.05;;
59189;SDS011;50749;51.636;4.948;2023-02-14T04:47:39;5.43;;;2.08;;
59189;SDS011;50749;51.636;4.948;2023-02-14T04:50:05;2.75;;;1.60;;
59189;SDS011;50749;51.636;4.948;2023-02-14T04:52:32;4.53;;;2.70;;
59189;SDS011;50749;51.636;4.948;2023-02-14T04:54:57;3.90;;;1.65;;
59189;SDS011;50749;51.636;4.948;2023-02-14T04:57:23;3.85;;;2.03;;
59189;SDS011;50749;51.636;4.948;2023-02-14T04:59:49;2.28;;;1.40;;
59189;SDS011;50749;51.636;4.948;2023-02-14T05:02:15;2.97;;;1.70;;
59189;SDS011;50749;51.636;4.948;2023-02-14T05:04:41;3.67;;;1.98;;
59189;SDS011;50749;51.636;4.948;2023-02-14T05:07:07;2.80;;;1.80;;
59189;SDS011;50749;51.636;4.948;2023-02-14T05:09:32;3.10;;;1.88;;
59189;SDS011;50749;51.636;4.948;2023-02-14T05:11:58;3.30;;;1.90;;
59189;SDS011;50749;51.636;4.948;2023-02-14T05:14:24;3.00;;;1.90;;
59189;SDS011;50749;51.636;4.948;2023-02-14T05:16:50;2.53;;;1.55;;
59189;SDS011;50749;51.636;4.948;2023-02-14T05:19:16;3.35;;;1.60;;
59189;SDS011;50749;51.636;4.948;2023-02-14T05:21:42;4.63;;;2.55;;
59189;SDS011;50749;51.636;4.948;2023-02-14T05:24:07;2.53;;;1.80;;
59189;SDS011;50749;51.636;4.948;2023-02-14T05:26:33;2.42;;;1.80;;
59189;SDS011;50749;51.636;4.948;2023-02-14T05:28:59;9.00;;;3.42;;
59189;SDS011;50749;51.636;4.948;2023-02-14T05:31:25;12.77;;;4.45;;
59189;SDS011;50749;51.636;4.948;2023-02-14T05:33:51;14.55;;;4.80;;
59189;SDS011;50749;51.636;4.948;2023-02-14T05:36:17;23.08;;;5.32;;
59189;SDS011;50749;51.636;4.948;2023-02-14T05:38:43;20.08;;;5.35;;
59189;SDS011;50749;51.636;4.948;2023-02-14T05:41:09;11.48;;;4.68;;
59189;SDS011;50749;51.636;4.948;2023-02-14T05:43:34;13.80;;;5.43;;
59189;SDS011;50749;51.636;4.948;2023-02-14T05:46:00;19.48;;;5.80;;
59189;SDS011;50749;51.636;4.948;2023-02-14T05:48:26;9.75;;;4.53;;
59189;SDS011;50749;51.636;4.948;2023-02-14T05:50:52;12.65;;;4.22;;
59189;SDS011;50749;51.636;4.948;2023-02-14T05:53:18;12.35;;;4.80;;
59189;SDS011;50749;51.636;4.948;2023-02-14T05:55:44;12.90;;;4.05;;
59189;SDS011;50749;51.636;4.948;2023-02-14T05:58:10;11.23;;;4.32;;
59189;SDS011;50749;51.636;4.948;2023-02-14T06:00:37;8.57;;;4.40;;
59189;SDS011;50749;51.636;4.948;2023-02-14T06:03:03;10.27;;;4.45;;
59189;SDS011;50749;51.636;4.948;2023-02-14T06:05:29;9.65;;;3.97;;
59189;SDS011;50749;51.636;4.948;2023-02-14T06:07:55;6.07;;;3.58;;
59189;SDS011;50749;51.636;4.948;2023-02-14T06:10:22;6.70;;;3.67;;
59189;SDS011;50749;51.636;4.948;2023-02-14T06:12:49;13.25;;;4.50;;
59189;SDS011;50749;51.636;4.948;2023-02-14T06:15:17;10.73;;;3.40;;
59189;SDS011;50749;51.636;4.948;2023-02-14T06:17:43;6.70;;;2.97;;
59189;SDS011;50749;51.636;4.948;2023-02-14T06:20:09;7.50;;;3.30;;
59189;SDS011;50749;51.636;4.948;2023-02-14T06:22:36;9.85;;;3.47;;
59189;SDS011;50749;51.636;4.948;2023-02-14T06:25:03;7.65;;;3.17;;
59189;SDS011;50749;51.636;4.948;2023-02-14T06:27:30;8.15;;;3.65;;
59189;SDS011;50749;51.636;4.948;2023-02-14T06:29:57;10.20;;;3.97;;
59189;SDS011;50749;51.636;4.948;2023-02-14T06:32:23;8.40;;;3.72;;
59189;SDS011;50749;51.636;4.948;2023-02-14T06:34:49;9.52;;;4.53;;
59189;SDS011;50749;51.636;4.948;2023-02-14T06:37:14;6.38;;;3.40;;
59189;SDS011;50749;51.636;4.948;2023-02-14T06:39:40;7.90;;;3.30;;
59189;SDS011;50749;51.636;4.948;2023-02-14T06:42:06;8.35;;;3.50;;
59189;SDS011;50749;51.636;4.948;2023-02-14T06:44:32;7.53;;;3.53;;
59189;SDS011;50749;51.636;4.948;2023-02-14T06:46:58;7.55;;;3.40;;
59189;SDS011;50749;51.636;4.948;2023-02-14T06:49:24;8.88;;;3.53;;
59189;SDS011;50749;51.636;4.948;2023-02-14T06:51:50;5.40;;;2.88;;
59189;SDS011;50749;51.636;4.948;2023-02-14T06:54:16;10.65;;;3.60;;
59189;SDS011;50749;51.636;4.948;2023-02-14T06:56:45;9.93;;;3.53;;
59189;SDS011;50749;51.636;4.948;2023-02-14T06:59:10;5.75;;;3.38;;
59189;SDS011;50749;51.636;4.948;2023-02-14T07:01:36;9.27;;;3.05;;
59189;SDS011;50749;51.636;4.948;2023-02-14T07:04:02;5.75;;;3.38;;
59189;SDS011;50749;51.636;4.948;2023-02-14T07:06:28;5.45;;;3.45;;
59189;SDS011;50749;51.636;4.948;2023-02-14T07:08:54;10.43;;;3.83;;
59189;SDS011;50749;51.636;4.948;2023-02-14T07:11:20;6.30;;;3.75;;
59189;SDS011;50749;51.636;4.948;2023-02-14T07:13:46;6.30;;;3.42;;
59189;SDS011;50749;51.636;4.948;2023-02-14T07:16:11;6.20;;;3.05;;
59189;SDS011;50749;51.636;4.948;2023-02-14T07:18:37;8.45;;;3.63;;
59189;SDS011;50749;51.636;4.948;2023-02-14T07:21:03;6.78;;;3.30;;
59189;SDS011;50749;51.636;4.948;2023-02-14T07:23:29;8.25;;;3.90;;
59189;SDS011;50749;51.636;4.948;2023-02-14T07:25:55;6.65;;;3.88;;
59189;SDS011;50749;51.636;4.948;2023-02-14T07:28:21;9.55;;;3.90;;
59189;SDS011;50749;51.636;4.948;2023-02-14T07:30:47;8.57;;;3.70;;
59189;SDS011;50749;51.636;4.948;2023-02-14T07:33:13;7.97;;;3.70;;
59189;SDS011;50749;51.636;4.948;2023-02-14T07:35:38;7.28;;;3.88;;
59189;SDS011;50749;51.636;4.948;2023-02-14T07:38:04;6.30;;;3.72;;
59189;SDS011;50749;51.636;4.948;2023-02-14T07:40:30;6.38;;;3.92;;
59189;SDS011;50749;51.636;4.948;2023-02-14T07:42:57;7.75;;;3.53;;
59189;SDS011;50749;51.636;4.948;2023-02-14T07:45:23;7.82;;;3.80;;
59189;SDS011;50749;51.636;4.948;2023-02-14T07:47:50;5.70;;;3.30;;
59189;SDS011;50749;51.636;4.948;2023-02-14T07:50:18;5.78;;;3.75;;
59189;SDS011;50749;51.636;4.948;2023-02-14T07:52:44;6.25;;;3.75;;
59189;SDS011;50749;51.636;4.948;2023-02-14T07:55:11;7.78;;;3.58;;
59189;SDS011;50749;51.636;4.948;2023-02-14T07:57:37;8.40;;;4.13;;
59189;SDS011;50749;51.636;4.948;2023-02-14T08:00:04;6.75;;;4.25;;
59189;SDS011;50749;51.636;4.948;2023-02-14T08:02:31;7.82;;;4.35;;
59189;SDS011;50749;51.636;4.948;2023-02-14T08:04:56;7.20;;;3.90;;
59189;SDS011;50749;51.636;4.948;2023-02-14T08:07:22;7.28;;;4.07;;
59189;SDS011;50749;51.636;4.948;2023-02-14T08:09:48;6.55;;;4.07;;
59189;SDS011;50749;51.636;4.948;2023-02-14T08:12:14;5.45;;;3.38;;
59189;SDS011;50749;51.636;4.948;2023-02-14T08:14:58;6.75;;;3.95;;
59189;SDS011;50749;51.636;4.948;2023-02-14T08:17:44;10.15;;;3.92;;
59189;SDS011;50749;51.636;4.948;2023-02-14T08:20:10;6.82;;;4.05;;
59189;SDS011;50749;51.636;4.948;2023-02-14T08:22:36;6.70;;;3.70;;
59189;SDS011;50749;51.636;4.948;2023-02-14T08:25:02;7.30;;;4.63;;
59189;SDS011;50749;51.636;4.948;2023-02-14T08:27:28;5.63;;;3.50;;
59189;SDS011;50749;51.636;4.948;2023-02-14T08:29:54;7.72;;;3.75;;
59189;SDS011;50749;51.636;4.948;2023-02-14T08:32:20;7.20;;;3.67;;
59189;SDS011;50749;51.636;4.948;2023-02-14T08:34:46;7.50;;;4.20;;
59189;SDS011;50749;51.636;4.948;2023-02-14T08:37:12;7.68;;;3.90;;
59189;SDS011;50749;51.636;4.948;2023-02-14T08:39:38;8.52;;;4.18;;
59189;SDS011;50749;51.636;4.948;2023-02-14T08:42:04;4.97;;;3.85;;
59189;SDS011;50749;51.636;4.948;2023-02-14T08:44:31;6.63;;;4.28;;
59189;SDS011;50749;51.636;4.948;2023-02-14T08:46:57;6.07;;;4.03;;
59189;SDS011;50749;51.636;4.948;2023-02-14T08:49:23;7.50;;;4.22;;
59189;SDS011;50749;51.636;4.948;2023-02-14T08:51:49;7.50;;;4.68;;
59189;SDS011;50749;51.636;4.948;2023-02-14T08:54:14;6.65;;;3.92;;
59189;SDS011;50749;51.636;4.948;2023-02-14T08:56:40;6.80;;;4.07;;
59189;SDS011;50749;51.636;4.948;2023-02-14T08:59:06;6.60;;;3.92;;
59189;SDS011;50749;51.636;4.948;2023-02-14T09:01:32;11.25;;;6.97;;
59189;SDS011;50749;51.636;4.948;2023-02-14T09:04:00;6.82;;;4.20;;
59189;SDS011;50749;51.636;4.948;2023-02-14T09:06:26;7.75;;;4.13;;
59189;SDS011;50749;51.636;4.948;2023-02-14T09:08:52;6.93;;;4.28;;
59189;SDS011;50749;51.636;4.948;2023-02-14T09:11:21;5.05;;;3.30;;
59189;SDS011;50749;51.636;4.948;2023-02-14T09:13:48;7.13;;;4.32;;
59189;SDS011;50749;51.636;4.948;2023-02-14T09:16:16;7.50;;;4.50;;
59189;SDS011;50749;51.636;4.948;2023-02-14T09:18:43;5.75;;;4.05;;
59189;SDS011;50749;51.636;4.948;2023-02-14T09:21:11;8.00;;;3.83;;
59189;SDS011;50749;51.636;4.948;2023-02-14T09:23:39;6.63;;;3.80;;
59189;SDS011;50749;51.636;4.948;2023-02-14T09:26:07;7.38;;;4.15;;
59189;SDS011;50749;51.636;4.948;2023-02-14T09:28:34;5.13;;;3.78;;
59189;SDS011;50749;51.636;4.948;2023-02-14T09:31:07;6.13;;;4.50;;
59189;SDS011;50749;51.636;4.948;2023-02-14T09:33:35;5.55;;;3.85;;
59189;SDS011;50749;51.636;4.948;2023-02-14T09:36:02;6.53;;;3.33;;
59189;SDS011;50749;51.636;4.948;2023-02-14T09:38:46;7.05;;;4.15;;
59189;SDS011;50749;51.636;4.948;2023-02-14T09:44:00;5.40;;;3.53;;
59189;SDS011;50749;51.636;4.948;2023-02-14T09:46:49;6.22;;;3.40;;
59189;SDS011;50749;51.636;4.948;2023-02-14T09:49:21;6.78;;;4.13;;
59189;SDS011;50749;51.636;4.948;2023-02-14T09:51:57;5.45;;;3.63;;
59189;SDS011;50749;51.636;4.948;2023-02-14T09:54:27;7.70;;;4.07;;
59189;SDS011;50749;51.636;4.948;2023-02-14T09:57:02;6.00;;;3.72;;
59189;SDS011;50749;51.636;4.948;2023-02-14T10:10:41;6.72;;;3.55;;
59189;SDS011;50749;51.636;4.948;2023-02-14T10:13:13;5.72;;;3.58;;
59189;SDS011;50749;51.636;4.948;2023-02-14T10:15:48;5.32;;;3.40;;
59189;SDS011;50749;51.636;4.948;2023-02-14T10:18:27;5.53;;;3.63;;
59189;SDS011;50749;51.636;4.948;2023-02-14T10:21:19;4.22;;;2.92;;
59189;SDS011;50749;51.636;4.948;2023-02-14T10:23:52;5.88;;;3.20;;
59189;SDS011;50749;51.636;4.948;2023-02-14T10:26:27;5.55;;;3.13;;
59189;SDS011;50749;51.636;4.948;2023-02-14T10:29:01;6.25;;;3.50;;
59189;SDS011;50749;51.636;4.948;2023-02-14T10:34:03;4.95;;;2.85;;
59189;SDS011;50749;51.636;4.948;2023-02-14T10:47:50;5.55;;;3.33;;
59189;SDS011;50749;51.636;4.948;2023-02-14T10:50:24;3.97;;;2.85;;
59189;SDS011;50749;51.636;4.948;2023-02-14T10:58:13;6.35;;;3.08;;
59189;SDS011;50749;51.636;4.948;2023-02-14T11:00:46;5.15;;;3.10;;
59189;SDS011;50749;51.636;4.948;2023-02-14T11:03:18;4.85;;;3.10;;
59189;SDS011;50749;51.636;4.948;2023-02-14T11:05:45;4.78;;;2.70;;
59189;SDS011;50749;51.636;4.948;2023-02-14T11:08:30;4.40;;;2.38;;
59189;SDS011;50749;51.636;4.948;2023-02-14T11:11:03;3.28;;;2.35;;
59189;SDS011;50749;51.636;4.948;2023-02-14T11:16:06;4.43;;;2.85;;
59189;SDS011;50749;51.636;4.948;2023-02-14T11:18:37;5.50;;;2.83;;
59189;SDS011;50749;51.636;4.948;2023-02-14T11:21:09;4.32;;;2.80;;
59189;SDS011;50749;51.636;4.948;2023-02-14T11:23:38;8.68;;;3.42;;
59189;SDS011;50749;51.636;4.948;2023-02-14T11:26:19;3.70;;;2.80;;
59189;SDS011;50749;51.636;4.948;2023-02-14T11:29:00;5.18;;;2.92;;
59189;SDS011;50749;51.636;4.948;2023-02-14T11:31:29;4.65;;;3.05;;
59189;SDS011;50749;51.636;4.948;2023-02-14T11:33:58;5.80;;;3.30;;
59189;SDS011;50749;51.636;4.948;2023-02-14T11:36:25;4.85;;;3.03;;
59189;SDS011;50749;51.636;4.948;2023-02-14T11:38:54;5.57;;;2.88;;
59189;SDS011;50749;51.636;4.948;2023-02-14T11:41:48;3.42;;;2.75;;
59189;SDS011;50749;51.636;4.948;2023-02-14T11:44:21;4.30;;;2.85;;
59189;SDS011;50749;51.636;4.948;2023-02-14T11:46:49;4.30;;;2.70;;
59189;SDS011;50749;51.636;4.948;2023-02-14T11:49:23;4.90;;;2.95;;
59189;SDS011;50749;51.636;4.948;2023-02-14T11:51:55;4.78;;;2.65;;
59189;SDS011;50749;51.636;4.948;2023-02-14T11:57:12;3.97;;;3.15;;
59189;SDS011;50749;51.636;4.948;2023-02-14T11:59:46;4.22;;;2.75;;
59189;SDS011;50749;51.636;4.948;2023-02-14T12:05:04;5.07;;;2.80;;
59189;SDS011;50749;51.636;4.948;2023-02-14T12:07:41;6.00;;;2.83;;
59189;SDS011;50749;51.636;4.948;2023-02-14T12:12:58;4.97;;;2.97;;
59189;SDS011;50749;51.636;4.948;2023-02-14T12:20:51;4.65;;;3.08;;
59189;SDS011;50749;51.636;4.948;2023-02-14T12:23:24;5.50;;;2.90;;
59189;SDS011;50749;51.636;4.948;2023-02-14T12:25:59;5.28;;;3.38;;
59189;SDS011;50749;51.636;4.948;2023-02-14T12:28:36;5.28;;;3.40;;
59189;SDS011;50749;51.636;4.948;2023-02-14T12:31:08;5.10;;;3.00;;
59189;SDS011;50749;51.636;4.948;2023-02-14T12:33:38;5.10;;;3.40;;
59189;SDS011;50749;51.636;4.948;2023-02-14T12:36:09;4.05;;;3.08;;
59189;SDS011;50749;51.636;4.948;2023-02-14T12:52:52;5.60;;;3.15;;
59189;SDS011;50749;51.636;4.948;2023-02-14T13:00:54;3.92;;;2.42;;
59189;SDS011;50749;51.636;4.948;2023-02-14T13:06:22;4.45;;;2.75;;
59189;SDS011;50749;51.636;4.948;2023-02-14T13:17:06;4.10;;;2.60;;
59189;SDS011;50749;51.636;4.948;2023-02-14T13:19:46;4.80;;;2.95;;
59189;SDS011;50749;51.636;4.948;2023-02-14T13:22:33;5.57;;;3.00;;
59189;SDS011;50749;51.636;4.948;2023-02-14T13:25:03;5.32;;;3.28;;
59189;SDS011;50749;51.636;4.948;2023-02-14T13:27:36;6.15;;;4.05;;
59189;SDS011;50749;51.636;4.948;2023-02-14T13:30:04;6.18;;;3.90;;
59189;SDS011;50749;51.636;4.948;2023-02-14T13:32:39;8.18;;;4.75;;
59189;SDS011;50749;51.636;4.948;2023-02-14T13:35:14;7.60;;;3.72;;
59189;SDS011;50749;51.636;4.948;2023-02-14T13:37:43;6.00;;;4.28;;
59189;SDS011;50749;51.636;4.948;2023-02-14T13:40:25;7.97;;;4.40;;
59189;SDS011;50749;51.636;4.948;2023-02-14T13:42:54;5.45;;;3.33;;
59189;SDS011;50749;51.636;4.948;2023-02-14T13:48:41;8.32;;;4.20;;
59189;SDS011;50749;51.636;4.948;2023-02-14T13:50:56;9.77;;;4.90;;
59189;SDS011;50749;51.636;4.948;2023-02-14T13:59:00;9.02;;;4.57;;
59189;SDS011;50749;51.636;4.948;2023-02-14T14:01:34;5.95;;;3.67;;
59189;SDS011;50749;51.636;4.948;2023-02-14T14:04:31;6.82;;;4.30;;
59189;SDS011;50749;51.636;4.948;2023-02-14T14:25:12;7.28;;;4.70;;
59189;SDS011;50749;51.636;4.948;2023-02-14T14:27:53;8.05;;;4.00;;
59189;SDS011;50749;51.636;4.948;2023-02-14T14:30:22;5.97;;;3.55;;
59189;SDS011;50749;51.636;4.948;2023-02-14T14:32:52;6.45;;;3.42;;
59189;SDS011;50749;51.636;4.948;2023-02-14T14:35:22;6.15;;;3.97;;
59189;SDS011;50749;51.636;4.948;2023-02-14T14:37:53;7.63;;;4.47;;
59189;SDS011;50749;51.636;4.948;2023-02-14T14:42:47;5.35;;;2.85;;
59189;SDS011;50749;51.636;4.948;2023-02-14T14:45:29;8.32;;;3.42;;
59189;SDS011;50749;51.636;4.948;2023-02-14T14:47:59;4.80;;;2.42;;
59189;SDS011;50749;51.636;4.948;2023-02-14T14:50:33;4.97;;;2.95;;
59189;SDS011;50749;51.636;4.948;2023-02-14T14:53:04;9.45;;;3.80;;
59189;SDS011;50749;51.636;4.948;2023-02-14T14:55:35;6.93;;;3.75;;
59189;SDS011;50749;51.636;4.948;2023-02-14T14:58:03;4.78;;;2.75;;
59189;SDS011;50749;51.636;4.948;2023-02-14T15:00:34;4.43;;;2.90;;
59189;SDS011;50749;51.636;4.948;2023-02-14T15:05:38;3.78;;;2.72;;
59189;SDS011;50749;51.636;4.948;2023-02-14T15:13:47;4.88;;;2.40;;
59189;SDS011;50749;51.636;4.948;2023-02-14T15:16:22;4.60;;;2.70;;
59189;SDS011;50749;51.636;4.948;2023-02-14T15:18:49;7.50;;;2.30;;
59189;SDS011;50749;51.636;4.948;2023-02-14T15:21:19;5.35;;;2.10;;
59189;SDS011;50749;51.636;4.948;2023-02-14T15:23:45;4.45;;;2.15;;
59189;SDS011;50749;51.636;4.948;2023-02-14T15:26:15;4.63;;;2.40;;
59189;SDS011;50749;51.636;4.948;2023-02-14T15:28:43;2.75;;;2.22;;
59189;SDS011;50749;51.636;4.948;2023-02-14T15:31:09;3.58;;;2.13;;
59189;SDS011;50749;51.636;4.948;2023-02-14T15:33:35;3.15;;;2.00;;
59189;SDS011;50749;51.636;4.948;2023-02-14T15:36:03;5.13;;;1.90;;
59189;SDS011;50749;51.636;4.948;2023-02-14T15:38:34;4.90;;;2.85;;
59189;SDS011;50749;51.636;4.948;2023-02-14T15:41:04;3.53;;;2.05;;
59189;SDS011;50749;51.636;4.948;2023-02-14T15:43:32;4.57;;;2.63;;
59189;SDS011;50749;51.636;4.948;2023-02-14T15:48:48;3.45;;;2.25;;
59189;SDS011;50749;51.636;4.948;2023-02-14T15:51:19;3.80;;;2.20;;
59189;SDS011;50749;51.636;4.948;2023-02-14T15:56:24;4.18;;;2.35;;
59189;SDS011;50749;51.636;4.948;2023-02-14T15:59:38;4.18;;;1.98;;
59189;SDS011;50749;51.636;4.948;2023-02-14T16:01:54;4.45;;;2.75;;
59189;SDS011;50749;51.636;4.948;2023-02-14T16:04:29;4.35;;;2.70;;
59189;SDS011;50749;51.636;4.948;2023-02-14T16:09:27;4.20;;;2.33;;
59189;SDS011;50749;51.636;4.948;2023-02-14T16:11:55;2.90;;;1.90;;
59189;SDS011;50749;51.636;4.948;2023-02-14T16:14:32;3.00;;;1.88;;
59189;SDS011;50749;51.636;4.948;2023-02-14T16:17:01;4.18;;;2.60;;
59189;SDS011;50749;51.636;4.948;2023-02-14T16:19:30;5.00;;;2.53;;
59189;SDS011;50749;51.636;4.948;2023-02-14T16:22:03;2.95;;;1.90;;
59189;SDS011;50749;51.636;4.948;2023-02-14T16:24:29;4.63;;;2.72;;
59189;SDS011;50749;51.636;4.948;2023-02-14T16:26:55;4.25;;;2.40;;
59189;SDS011;50749;51.636;4.948;2023-02-14T16:29:22;4.32;;;2.33;;
59189;SDS011;50749;51.636;4.948;2023-02-14T16:31:54;4.72;;;2.30;;
59189;SDS011;50749;51.636;4.948;2023-02-14T16:34:21;3.30;;;2.33;;
59189;SDS011;50749;51.636;4.948;2023-02-14T16:36:48;8.00;;;2.60;;
59189;SDS011;50749;51.636;4.948;2023-02-14T16:39:15;4.40;;;2.08;;
59189;SDS011;50749;51.636;4.948;2023-02-14T16:41:44;4.10;;;2.72;;
59189;SDS011;50749;51.636;4.948;2023-02-14T16:44:15;4.15;;;2.75;;
59189;SDS011;50749;51.636;4.948;2023-02-14T16:46:42;3.60;;;2.30;;
59189;SDS011;50749;51.636;4.948;2023-02-14T16:49:10;3.33;;;2.20;;
59189;SDS011;50749;51.636;4.948;2023-02-14T16:51:37;4.07;;;2.28;;
59189;SDS011;50749;51.636;4.948;2023-02-14T16:54:09;8.00;;;2.58;;
59189;SDS011;50749;51.636;4.948;2023-02-14T16:56:43;7.95;;;3.03;;
59189;SDS011;50749;51.636;4.948;2023-02-14T16:59:17;6.18;;;2.92;;
59189;SDS011;50749;51.636;4.948;2023-02-14T17:01:43;9.45;;;3.03;;
59189;SDS011;50749;51.636;4.948;2023-02-14T17:04:08;6.65;;;2.70;;
59189;SDS011;50749;51.636;4.948;2023-02-14T17:06:35;4.50;;;2.63;;
59189;SDS011;50749;51.636;4.948;2023-02-14T17:09:05;3.22;;;2.40;;
59189;SDS011;50749;51.636;4.948;2023-02-14T17:11:35;9.75;;;2.60;;
59189;SDS011;50749;51.636;4.948;2023-02-14T17:14:04;4.47;;;2.75;;
59189;SDS011;50749;51.636;4.948;2023-02-14T17:16:30;8.77;;;2.92;;
59189;SDS011;50749;51.636;4.948;2023-02-14T17:18:57;5.35;;;2.65;;
59189;SDS011;50749;51.636;4.948;2023-02-14T17:21:23;8.77;;;3.60;;
59189;SDS011;50749;51.636;4.948;2023-02-14T17:23:49;6.07;;;3.67;;
59189;SDS011;50749;51.636;4.948;2023-02-14T17:26:15;8.68;;;3.58;;
59189;SDS011;50749;51.636;4.948;2023-02-14T17:28:42;12.45;;;5.30;;
59189;SDS011;50749;51.636;4.948;2023-02-14T17:31:09;10.57;;;5.88;;
59189;SDS011;50749;51.636;4.948;2023-02-14T17:33:34;8.30;;;4.85;;
59189;SDS011;50749;51.636;4.948;2023-02-14T17:36:02;9.90;;;5.85;;
59189;SDS011;50749;51.636;4.948;2023-02-14T17:38:32;10.85;;;5.85;;
59189;SDS011;50749;51.636;4.948;2023-02-14T17:40:59;9.32;;;5.20;;
59189;SDS011;50749;51.636;4.948;2023-02-14T17:43:35;10.32;;;4.80;;
59189;SDS011;50749;51.636;4.948;2023-02-14T17:46:03;6.63;;;4.38;;